Time;durP1;ratioP1;P1;durP2;ratioP2;P2;SDS_P1;SDS_P2;PMS_P1;PMS_P2;Temp;Humidity;BMP_temperature;BMP_pressure;BME280_temperature;BME280_humidity;BME280_pressure;Samples;Min_cycle;Max_cycle;Signal;HPM_P1;HPM_P2
2022/05/10 00:00:57;;;;;;;9.37;8.37;;;;;;;17.34;54.21;99288.78;7006828;28;20221;-82
2022/05/10 00:04:19;;;;;;;10.20;9.20;;;;;;;17.44;55.61;99334.59;7007014;28;20610;-82
2022/05/10 00:07:42;;;;;;;11.83;10.57;;;;;;;17.39;55.89;99335.28;7006431;28;20189;-83
2022/05/10 00:11:04;;;;;;;9.97;9.03;;;;;;;17.11;56.13;99298.88;7011051;28;20214;-83
2022/05/10 00:14:27;;;;;;;12.87;9.47;;;;;;;17.50;55.45;99330.91;7011204;28;20213;-83
2022/05/10 00:17:49;;;;;;;10.00;9.10;;;;;;;17.78;54.48;99331.88;7011236;28;20228;-82
2022/05/10 00:21:11;;;;;;;11.03;9.47;;;;;;;17.77;54.43;99335.69;7010291;28;20220;-82
2022/05/10 00:24:34;;;;;;;10.60;9.77;;;;;;;17.38;55.19;99330.91;7007949;28;20678;-83
2022/05/10 00:27:56;;;;;;;10.10;9.03;;;;;;;17.29;55.50;99339.66;7005810;28;20243;-83
2022/05/10 00:31:18;;;;;;;11.30;10.17;;;;;;;16.83;56.30;99317.75;7005924;28;20259;-83
2022/05/10 00:34:43;;;;;;;10.50;9.50;;;;;;;17.10;56.45;99338.91;7005362;28;20209;-82
2022/05/10 00:38:06;;;;;;;11.33;9.30;;;;;;;17.09;55.71;99331.78;7009007;28;20217;-82
2022/05/10 00:41:35;;;;;;;10.70;9.80;;;;;;;17.28;55.21;99316.19;7019999;28;20233;-82
2022/05/10 00:45:00;;;;;;;10.00;9.00;;;;;;;17.53;54.64;99344.94;7017496;28;20213;-83
2022/05/10 00:48:29;;;;;;;10.77;9.77;;;;;;;17.03;55.58;99340.91;7009752;28;20259;-83
2022/05/10 00:51:56;;;;;;;11.63;10.53;;;;;;;17.12;55.63;99333.22;7038150;28;20220;-82
2022/05/10 00:55:21;;;;;;;11.10;9.97;;;;;;;17.26;55.61;99310.97;7053026;28;20196;-82
2022/05/10 00:58:47;;;;;;;11.03;10.03;;;;;;;17.19;55.76;99340.22;7040953;28;20221;-84
2022/05/10 01:02:22;;;;;;;11.10;10.17;;;;;;;17.11;56.33;99324.19;7032660;28;20271;-83
2022/05/10 01:05:46;;;;;;;10.97;9.87;;;;;;;17.18;55.63;99310.47;7031273;28;20245;-83
2022/05/10 01:09:11;;;;;;;10.40;9.40;;;;;;;17.33;54.98;99329.94;7032624;28;20204;-83
2022/05/10 01:12:34;;;;;;;10.90;10.00;;;;;;;17.23;55.13;99316.06;7034424;28;20581;-82
2022/05/10 01:16:10;;;;;;;10.40;9.40;;;;;;;16.98;55.61;99312.72;7032211;28;20201;-83
2022/05/10 01:19:32;;;;;;;10.60;9.60;;;;;;;16.43;57.24;99290.28;7032547;28;20197;-82
2022/05/10 01:22:59;;;;;;;10.20;9.30;;;;;;;16.83;56.40;99293.22;7032613;28;20256;-82
2022/05/10 01:26:25;;;;;;;10.77;9.77;;;;;;;16.68;56.47;99285.50;7033060;28;20183;-82
2022/05/10 01:29:51;;;;;;;11.73;10.00;;;;;;;16.83;56.80;99294.06;7032728;28;20276;-82
2022/05/10 01:33:32;;;;;;;10.53;9.57;;;;;;;16.58;56.86;99292.56;7031292;28;20234;-82
2022/05/10 01:36:58;;;;;;;13.23;11.77;;;;;;;16.23;58.68;99300.53;7032606;28;20224;-82
2022/05/10 01:40:26;;;;;;;12.27;10.97;;;;;;;16.67;58.25;99299.34;7031863;28;20200;-81
2022/05/10 01:43:49;;;;;;;12.47;11.33;;;;;;;16.59;57.07;99280.63;7033082;28;20247;-82
2022/05/10 01:47:14;;;;;;;11.50;10.33;;;;;;;16.79;56.79;99290.16;7032501;28;20812;-82
2022/05/10 01:50:40;;;;;;;11.57;10.47;;;;;;;16.95;56.82;99283.19;7030603;28;20700;-82
2022/05/10 01:54:02;;;;;;;11.53;10.13;;;;;;;17.07;56.25;99279.44;7005776;28;20236;-82
2022/05/10 01:57:24;;;;;;;12.67;11.37;;;;;;;16.64;57.29;99276.13;7004892;28;20229;-82
2022/05/10 02:00:49;;;;;;;13.00;11.23;;;;;;;16.81;57.07;99266.22;7005629;28;20209;-82
2022/05/10 02:04:15;;;;;;;12.93;10.77;;;;;;;16.94;56.71;99266.03;7005961;28;20226;-82
2022/05/10 02:07:37;;;;;;;13.03;11.77;;;;;;;16.29;57.57;99277.03;7005404;28;20202;-82
2022/05/10 02:11:03;;;;;;;13.87;11.90;;;;;;;16.57;57.97;99264.50;7005610;28;20270;-82
2022/05/10 02:14:27;;;;;;;13.07;11.63;;;;;;;16.77;57.69;99269.66;7006249;28;20713;-82
2022/05/10 02:17:52;;;;;;;13.53;12.23;;;;;;;16.64;57.47;99262.50;7005776;28;20226;-82
2022/05/10 02:21:17;;;;;;;12.63;11.57;;;;;;;16.70;57.18;99260.78;7007178;28;20272;-82
2022/05/10 02:24:41;;;;;;;12.57;11.40;;;;;;;16.91;57.26;99271.94;7007811;28;20234;-81
2022/05/10 02:28:09;;;;;;;12.00;10.80;;;;;;;17.08;55.99;99245.66;7008682;28;20209;-83
2022/05/10 02:33:06;;;;;;;10.77;9.63;;;;;;;17.13;55.55;99264.88;7024803;28;20218;-83
2022/05/10 02:35:17;;;;;;;12.73;11.53;;;;;;;16.72;55.59;99272.25;7015247;28;20213;-82
2022/05/10 02:38:41;;;;;;;12.67;11.47;;;;;;;16.55;57.06;99268.53;7015523;28;20229;-83
2022/05/10 02:42:04;;;;;;;12.83;11.73;;;;;;;16.25;57.93;99271.22;7024628;28;20210;-83
2022/05/10 02:45:25;;;;;;;12.40;11.30;;;;;;;16.07;56.99;99184.22;7018662;28;20342;-83
2022/05/10 02:48:48;;;;;;;12.77;11.53;;;;;;;16.26;57.70;99251.13;7003871;28;20264;-82
2022/05/10 02:52:10;;;;;;;14.67;13.27;;;;;;;16.27;57.96;99279.16;7030522;28;20228;-82
2022/05/10 02:55:38;;;;;;;15.23;12.27;;;;;;;16.57;57.57;99278.13;7036545;28;20213;-82
2022/05/10 02:59:03;;;;;;;14.10;12.63;;;;;;;16.12;58.56;99273.28;7036176;28;20590;-82
2022/05/10 03:02:28;;;;;;;13.83;12.43;;;;;;;16.31;58.74;99274.91;7037501;28;20231;-82
2022/05/10 03:05:49;;;;;;;14.87;13.37;;;;;;;16.22;58.77;99279.84;7023848;28;20704;-82
2022/05/10 03:09:11;;;;;;;14.50;12.97;;;;;;;16.40;58.59;99266.22;7007128;28;20685;-81
2022/05/10 03:12:34;;;;;;;12.43;11.13;;;;;;;16.50;57.13;99250.16;7007722;28;20705;-81
2022/05/10 03:15:56;;;;;;;13.50;11.80;;;;;;;16.38;57.15;99256.59;7006914;28;20396;-82
2022/05/10 03:19:17;;;;;;;11.97;10.83;;;;;;;16.35;56.21;99241.56;7006869;28;20228;-82
2022/05/10 03:22:39;;;;;;;12.50;11.23;;;;;;;16.24;57.42;99266.84;7008615;28;20239;-82
2022/05/10 03:26:01;;;;;;;13.50;12.10;;;;;;;16.21;58.05;99263.75;7008609;28;20213;-82
2022/05/10 03:29:25;;;;;;;14.03;12.63;;;;;;;16.16;58.01;99269.06;7009912;28;20213;-82
2022/05/10 03:32:46;;;;;;;14.40;13.10;;;;;;;16.07;58.63;99262.25;7009318;28;20376;-81
2022/05/10 03:36:08;;;;;;;12.50;11.30;;;;;;;16.47;57.80;99258.81;7009578;28;20205;-82
2022/05/10 03:39:30;;;;;;;13.30;12.00;;;;;;;16.49;57.43;99264.00;7009901;28;20274;-82
2022/05/10 03:42:55;;;;;;;12.50;11.37;;;;;;;16.34;56.94;99241.81;7009424;28;20564;-83
2022/05/10 03:46:18;;;;;;;15.63;14.03;;;;;;;15.96;57.93;99252.16;7009424;28;20194;-83
2022/05/10 03:49:39;;;;;;;14.60;13.20;;;;;;;16.07;58.12;99262.25;7009337;28;20262;-82
2022/05/10 03:53:01;;;;;;;14.87;13.47;;;;;;;15.97;58.68;99268.25;7037652;28;20300;-83
2022/05/10 03:56:23;;;;;;;14.77;13.37;;;;;;;16.06;59.40;99266.03;7037138;28;20222;-83
2022/05/10 03:59:44;;;;;;;16.00;14.10;;;;;;;16.17;58.82;99270.72;7037614;28;20239;-83
2022/05/10 04:03:08;;;;;;;14.67;13.17;;;;;;;16.03;58.57;99236.56;7037788;28;20235;-83
2022/05/10 04:06:29;;;;;;;15.63;14.13;;;;;;;16.00;58.33;99247.91;7036767;28;20216;-83
2022/05/10 04:09:51;;;;;;;15.33;13.53;;;;;;;15.82;59.08;99250.66;7035337;28;20242;-83
2022/05/10 04:13:12;;;;;;;15.37;13.93;;;;;;;15.48;60.13;99252.09;7035368;28;20362;-82
2022/05/10 04:16:35;;;;;;;16.43;14.87;;;;;;;15.84;60.02;99264.84;7028743;28;20212;-81
2022/05/10 04:19:58;;;;;;;17.00;14.70;;;;;;;15.93;60.46;99267.03;7036328;28;20245;-82
2022/05/10 04:23:20;;;;;;;15.20;13.70;;;;;;;16.04;59.66;99263.53;7029479;28;21969;-82
2022/05/10 04:26:43;;;;;;;14.80;13.17;;;;;;;15.86;58.51;99184.72;7037329;28;20204;-82
2022/05/10 04:30:05;;;;;;;15.43;14.03;;;;;;;16.02;59.29;99262.09;7021494;28;20201;-79
2022/05/10 04:33:27;;;;;;;15.47;14.07;;;;;;;16.23;58.97;99264.34;7009650;28;20230;-80
2022/05/10 04:36:50;;;;;;;15.37;13.87;;;;;;;16.41;57.84;99262.47;7022508;28;20225;-81
2022/05/10 04:43:52;;;;;;;15.43;13.90;;;;;;;16.34;59.06;99255.41;7008903;28;20235;-81
2022/05/10 04:47:14;;;;;;;15.67;13.97;;;;;;;16.19;59.70;99263.13;7024582;28;20253;-81
2022/05/10 04:50:36;;;;;;;15.57;13.97;;;;;;;16.12;59.24;99217.00;7036718;28;20745;-81
2022/05/10 04:53:59;;;;;;;15.90;14.40;;;;;;;16.27;59.87;99254.69;7035545;28;20238;-82
2022/05/10 04:57:21;;;;;;;15.83;14.33;;;;;;;16.60;59.41;99263.22;7026934;28;20224;-82
2022/05/10 05:00:43;;;;;;;16.00;14.60;;;;;;;16.73;59.06;99250.22;7035995;28;20209;-84
2022/05/10 05:04:05;;;;;;;14.07;12.73;;;;;;;17.42;57.76;99271.28;7038337;28;20589;-83
2022/05/10 05:07:27;;;;;;;14.33;13.13;;;;;;;17.71;57.17;99267.59;7037158;28;20196;-82
2022/05/10 05:10:50;;;;;;;14.37;12.93;;;;;;;17.85;57.11;99255.34;7035762;28;20205;-83
2022/05/10 05:14:12;;;;;;;14.47;13.07;;;;;;;18.45;55.50;99262.09;7016794;28;20229;-84
2022/05/10 05:17:34;;;;;;;12.43;11.23;;;;;;;18.88;54.00;99254.13;7005328;28;20230;-83
2022/05/10 05:20:56;;;;;;;12.73;11.53;;;;;;;19.47;52.99;99273.44;7007242;28;20206;-83
2022/05/10 05:24:17;;;;;;;12.27;11.17;;;;;;;19.64;52.58;99257.81;7032298;28;20593;-84
2022/05/10 05:27:40;;;;;;;12.77;11.10;;;;;;;19.77;51.66;99235.56;7004909;28;20772;-84
2022/05/10 05:31:02;;;;;;;11.90;10.70;;;;;;;19.33;53.54;99268.56;7005272;28;20210;-85
2022/05/10 05:34:24;;;;;;;64.47;15.67;;;;;;;20.07;52.86;99271.59;7005394;28;20260;-85
2022/05/10 05:37:46;;;;;;;17.73;11.70;;;;;;;20.24;51.88;99260.56;7004860;28;20264;-85
2022/05/10 05:41:08;;;;;;;11.33;10.27;;;;;;;20.79;50.38;99226.34;7005562;28;20207;-84
2022/05/10 05:44:31;;;;;;;15.77;11.67;;;;;;;21.02;51.16;99254.25;7005398;28;20582;-83
2022/05/10 05:47:53;;;;;;;12.40;10.53;;;;;;;21.56;49.58;99264.03;7004629;28;20288;-85
2022/05/10 05:51:14;;;;;;;12.37;11.07;;;;;;;21.49;49.44;99266.16;7024007;28;20276;-84
2022/05/10 05:54:37;;;;;;;11.83;10.40;;;;;;;21.89;47.63;99178.56;7031858;28;20213;-84
2022/05/10 05:57:59;;;;;;;9.73;8.77;;;;;;;22.99;44.62;99231.06;7033023;28;20253;-84
2022/05/10 06:01:23;;;;;;;10.50;9.33;;;;;;;23.31;44.01;99267.38;7004845;28;20199;-83
2022/05/10 06:04:45;;;;;;;8.80;8.00;;;;;;;22.82;43.44;99193.91;7006020;28;20216;-85
2022/05/10 06:08:09;;;;;;;9.90;9.00;;;;;;;22.90;43.92;99205.19;7004310;28;20233;-83
2022/05/10 06:11:30;;;;;;;10.47;8.50;;;;;;;23.48;42.64;99214.81;7004445;28;20230;-84
2022/05/10 06:14:52;;;;;;;9.90;8.93;;;;;;;23.86;42.05;99259.06;7005432;28;20680;-84
2022/05/10 06:18:15;;;;;;;9.27;8.17;;;;;;;23.55;42.42;99259.41;7003549;28;20241;-84
2022/05/10 06:21:37;;;;;;;8.63;7.73;;;;;;;23.65;42.18;99246.44;7006341;28;20228;-84
2022/05/10 06:24:59;;;;;;;10.87;8.03;;;;;;;23.74;42.01;99228.25;7013862;28;20194;-84
2022/05/10 06:28:20;;;;;;;9.10;7.90;;;;;;;24.10;41.32;99271.13;7037446;28;20284;-84
2022/05/10 06:31:42;;;;;;;8.67;7.97;;;;;;;23.97;42.01;99260.72;7037988;28;20232;-84
2022/05/10 06:35:08;;;;;;;8.13;7.43;;;;;;;23.76;41.41;99211.41;7038033;28;20206;-84
2022/05/10 06:38:29;;;;;;;10.57;7.80;;;;;;;24.63;40.83;99264.00;7037016;28;20234;-84
2022/05/10 06:41:51;;;;;;;8.57;7.77;;;;;;;24.24;40.77;99202.47;7037677;28;20224;-84
2022/05/10 06:45:15;;;;;;;8.90;7.80;;;;;;;24.27;40.54;99263.34;7037987;28;20208;-84
2022/05/10 06:48:41;;;;;;;9.03;8.23;;;;;;;24.40;41.73;99251.69;7034934;28;20205;-84
2022/05/10 06:52:06;;;;;;;9.23;7.50;;;;;;;24.74;39.60;99207.69;7010503;28;20312;-84
2022/05/10 06:55:31;;;;;;;8.10;7.40;;;;;;;24.82;39.89;99205.13;7011466;28;20298;-84
2022/05/10 06:58:52;;;;;;;8.73;7.93;;;;;;;25.58;38.32;99255.84;7031307;28;20612;-84
2022/05/10 07:02:14;;;;;;;8.43;7.73;;;;;;;25.42;38.81;99236.94;7057049;28;20206;-85
2022/05/10 07:05:36;;;;;;;8.60;7.70;;;;;;;25.51;38.14;99227.75;7060079;28;20241;-84
2022/05/10 07:08:59;;;;;;;8.33;7.60;;;;;;;25.81;38.43;99262.50;7062806;28;20209;-84
2022/05/10 07:12:21;;;;;;;8.53;7.53;;;;;;;25.67;38.31;99193.31;7051653;28;20227;-83
2022/05/10 07:15:42;;;;;;;7.83;7.07;;;;;;;26.26;37.64;99253.72;7049558;28;20220;-82
2022/05/10 07:19:04;;;;;;;8.27;7.33;;;;;;;26.50;37.34;99237.91;7056114;28;20224;-83
2022/05/10 07:22:26;;;;;;;10.43;6.57;;;;;;;26.66;37.12;99250.44;7042570;28;20217;-82
2022/05/10 07:25:49;;;;;;;7.23;6.63;;;;;;;26.49;36.67;99220.47;7023299;28;20228;-82
2022/05/10 07:29:11;;;;;;;7.57;6.87;;;;;;;26.69;36.00;99172.38;7036455;28;20260;-82
2022/05/10 07:32:32;;;;;;;7.60;7.00;;;;;;;26.73;36.74;99239.81;7036927;28;20578;-84
2022/05/10 07:39:35;;;;;;;8.50;7.10;;;;;;;27.35;35.46;99248.53;7008136;28;20222;-81
2022/05/10 07:42:58;;;;;;;7.63;6.83;;;;;;;27.71;34.60;99232.91;7008229;28;20222;-82
2022/05/10 07:46:20;;;;;;;7.40;6.80;;;;;;;27.52;35.52;99259.88;7007408;28;20211;-82
2022/05/10 07:49:42;;;;;;;7.27;6.53;;;;;;;27.63;34.96;99252.19;7007526;28;20206;-81
2022/05/10 07:53:06;;;;;;;7.70;6.90;;;;;;;28.30;33.93;99230.06;7027442;28;20234;-81
2022/05/10 07:56:28;;;;;;;8.17;7.37;;;;;;;26.69;35.98;99245.13;7035602;28;20565;-81
2022/05/10 07:59:51;;;;;;;7.37;6.70;;;;;;;27.26;35.75;99255.88;7036835;28;20228;-81
2022/05/10 08:03:14;;;;;;;9.97;8.10;;;;;;;27.67;34.59;99228.28;7024565;28;20236;-81
2022/05/10 08:06:36;;;;;;;8.97;7.00;;;;;;;28.29;34.90;99234.00;7009245;28;20220;-81
2022/05/10 08:09:57;;;;;;;9.53;7.47;;;;;;;28.16;34.18;99240.38;7010356;28;20206;-81
2022/05/10 08:13:21;;;;;;;7.57;6.83;;;;;;;27.73;35.06;99238.16;7009781;28;20264;-81
2022/05/10 08:16:45;;;;;;;7.43;6.50;;;;;;;29.01;33.56;99229.38;7010819;28;20215;-81
2022/05/10 08:20:08;;;;;;;7.60;6.47;;;;;;;29.14;31.61;99231.25;7037597;28;20228;-81
2022/05/10 08:23:31;;;;;;;7.83;6.57;;;;;;;29.35;31.64;99227.66;7034465;28;20223;-82
2022/05/10 08:26:53;;;;;;;6.53;5.93;;;;;;;29.85;30.82;99226.31;7012577;28;20210;-81
2022/05/10 08:30:15;;;;;;;8.07;6.87;;;;;;;29.24;31.81;99233.78;7010507;28;20659;-82
2022/05/10 08:33:41;;;;;;;8.20;6.60;;;;;;;30.29;31.25;99208.66;7036091;28;20232;-81
2022/05/10 08:37:03;;;;;;;6.73;6.13;;;;;;;30.52;30.39;99205.44;7035527;28;20188;-82
2022/05/10 08:40:29;;;;;;;7.37;6.67;;;;;;;29.80;31.40;99211.75;7036528;28;20221;-82
2022/05/10 08:43:52;;;;;;;7.10;6.50;;;;;;;29.83;31.36;99216.69;7016829;28;20228;-81
2022/05/10 08:47:15;;;;;;;7.30;6.60;;;;;;;30.35;30.44;99215.72;7011764;28;20195;-81
2022/05/10 08:50:39;;;;;;;6.80;6.13;;;;;;;30.23;31.04;99194.09;7018901;28;20203;-82
2022/05/10 08:54:00;;;;;;;6.97;6.03;;;;;;;30.92;30.00;99212.56;7033825;28;20219;-82
2022/05/10 08:57:28;;;;;;;6.90;6.20;;;;;;;30.17;30.15;99216.81;7032863;28;20766;-82
2022/05/10 09:00:52;;;;;;;6.17;5.43;;;;;;;30.58;29.98;99201.38;7037808;28;20212;-82
2022/05/10 09:04:23;;;;;;;6.60;6.00;;;;;;;30.07;28.94;99175.38;7038367;28;20225;-83
2022/05/10 09:07:52;;;;;;;6.50;6.00;;;;;;;30.03;29.68;99205.78;7037639;28;20196;-82
2022/05/10 09:11:15;;;;;;;6.57;6.00;;;;;;;30.30;29.51;99193.63;7037343;28;20207;-81
2022/05/10 09:14:43;;;;;;;5.97;5.47;;;;;;;31.10;28.42;99199.44;7038843;28;20209;-82
2022/05/10 09:18:10;;;;;;;5.93;4.57;;;;;;;31.69;26.93;99187.34;7032471;28;20285;-81
2022/05/10 09:21:35;;;;;;;6.40;4.87;;;;;;;31.57;27.03;99188.06;7010857;28;20230;-77
2022/05/10 09:24:58;;;;;;;4.60;4.20;;;;;;;31.71;27.73;99199.81;7033636;28;20194;-86
2022/05/10 09:28:22;;;;;;;5.17;4.63;;;;;;;30.93;27.83;99197.47;7032833;28;20204;-80
2022/05/10 09:35:25;;;;;;;5.63;4.83;;;;;;;31.42;26.67;99196.16;7032786;28;20569;-80
2022/05/10 09:38:48;;;;;;;5.07;4.30;;;;;;;31.38;26.61;99190.38;7032273;28;20225;-82
2022/05/10 09:42:25;;;;;;;5.40;4.90;;;;;;;31.08;27.27;99193.38;7010719;28;20722;-82
2022/05/10 09:46:05;;;;;;;5.33;4.40;;;;;;;32.36;25.69;99193.84;7034384;28;20188;-84
2022/05/10 09:49:31;;;;;;;5.47;4.37;;;;;;;32.42;24.08;99184.91;7034007;28;20265;-82
2022/05/10 09:53:08;;;;;;;4.50;4.10;;;;;;;32.07;24.07;99172.28;7034397;28;20251;-82
2022/05/10 09:56:34;;;;;;;5.20;4.20;;;;;;;32.81;23.88;99167.72;7026979;28;20205;-83
2022/05/10 09:59:56;;;;;;;6.70;4.40;;;;;;;32.04;24.89;99177.72;7024786;28;20210;-82
2022/05/10 10:03:25;;;;;;;4.87;3.90;;;;;;;32.49;24.48;99174.00;7011906;28;20719;-82
2022/05/10 10:06:46;;;;;;;4.70;4.30;;;;;;;32.34;25.22;99174.63;7011135;28;20662;-81
2022/05/10 10:10:16;;;;;;;4.77;4.23;;;;;;;32.72;24.56;99166.94;7011642;28;20208;-82
2022/05/10 10:13:39;;;;;;;4.10;3.80;;;;;;;33.17;22.67;99167.88;7012506;28;20224;-83
2022/05/10 10:17:02;;;;;;;5.67;4.03;;;;;;;32.44;23.42;99153.84;7030569;28;20224;-82
2022/05/10 10:20:30;;;;;;;4.67;3.87;;;;;;;32.39;22.79;99140.09;7030041;28;20215;-84
2022/05/10 10:23:55;;;;;;;4.47;4.07;;;;;;;31.39;23.29;99157.78;7010551;28;20328;-83
2022/05/10 10:27:20;;;;;;;4.30;3.60;;;;;;;32.74;23.08;99136.72;7010247;28;20213;-83
2022/05/10 10:30:45;;;;;;;5.00;4.40;;;;;;;31.45;23.63;99148.91;7010616;28;20193;-82
2022/05/10 10:34:14;;;;;;;4.60;4.20;;;;;;;33.01;22.95;99140.94;7010730;28;20233;-83
2022/05/10 10:37:39;;;;;;;4.30;3.90;;;;;;;31.84;24.12;99148.59;7010254;28;20189;-82
2022/05/10 10:41:03;;;;;;;5.20;3.70;;;;;;;32.37;23.82;99148.81;7011019;28;20205;-84
2022/05/10 10:44:27;;;;;;;4.50;4.10;;;;;;;31.96;23.89;99122.78;7028409;28;20213;-82
2022/05/10 10:47:52;;;;;;;4.00;3.60;;;;;;;33.09;21.04;99120.44;7028262;28;20210;-83
2022/05/10 10:51:16;;;;;;;4.37;3.77;;;;;;;33.32;20.41;99130.91;7019075;28;20223;-83
2022/05/10 10:54:38;;;;;;;4.30;3.63;;;;;;;33.42;21.43;99124.88;7010175;28;20686;-82
2022/05/10 10:58:04;;;;;;;4.17;3.70;;;;;;;32.50;22.49;99130.16;7030101;28;20205;-83
2022/05/10 11:01:40;;;;;;;4.00;3.70;;;;;;;32.21;21.92;99124.59;7038673;28;20213;-83
2022/05/10 11:05:17;;;;;;;4.40;4.00;;;;;;;31.78;22.41;99122.03;7038254;28;20215;-82
2022/05/10 11:08:50;;;;;;;3.90;3.50;;;;;;;32.18;21.76;99112.13;7010565;28;20283;-83
2022/05/10 11:12:24;;;;;;;4.17;3.77;;;;;;;32.85;21.45;99115.56;7019433;28;20235;-83
2022/05/10 11:15:53;;;;;;;4.27;3.60;;;;;;;32.82;22.75;99105.09;7010768;28;20581;-82
2022/05/10 11:19:42;;;;;;;4.30;4.00;;;;;;;30.04;25.00;99104.53;7035671;28;20227;-82
2022/05/10 11:23:06;;;;;;;4.83;3.93;;;;;;;29.73;25.98;99100.19;7041330;28;20229;-83
2022/05/10 11:26:40;;;;;;;4.03;3.73;;;;;;;31.71;23.32;99084.66;7035617;28;20207;-82
2022/05/10 11:30:06;;;;;;;4.00;3.50;;;;;;;33.35;21.13;99082.69;7032555;28;20212;-81
2022/05/10 11:33:34;;;;;;;4.60;3.60;;;;;;;33.46;21.54;99081.09;7029089;28;20226;-81
2022/05/10 11:36:59;;;;;;;3.40;3.10;;;;;;;33.29;21.72;99086.88;7015616;28;20206;-81
2022/05/10 11:40:37;;;;;;;4.20;3.50;;;;;;;32.94;21.11;99080.00;7011991;28;20237;-80
2022/05/10 11:44:24;;;;;;;4.57;3.90;;;;;;;32.39;22.36;99073.09;7024146;28;20208;-82
2022/05/10 11:48:15;;;;;;;3.80;3.50;;;;;;;32.37;21.83;99070.63;7041319;28;20296;-82
2022/05/10 11:51:54;;;;;;;4.00;3.63;;;;;;;32.32;22.02;99047.72;7055144;28;20210;-84
2022/05/10 11:55:23;;;;;;;3.20;2.90;;;;;;;32.58;20.80;99045.50;7054057;28;20212;-82
2022/05/10 11:58:45;;;;;;;4.10;3.40;;;;;;;32.66;20.85;99067.75;7053439;28;20202;-82
2022/05/10 12:02:47;;;;;;;3.70;3.40;;;;;;;33.60;19.16;99047.19;7054556;28;20233;-82
2022/05/10 12:06:38;;;;;;;3.40;3.10;;;;;;;32.89;20.99;99051.47;7054356;28;20219;-82
2022/05/10 12:10:03;;;;;;;3.40;3.03;;;;;;;31.80;21.70;99038.88;7054450;28;20189;-82
2022/05/10 12:21:30;;;;;;;4.03;3.57;;;;;;;32.72;21.95;99035.66;7037714;28;20218;-80
2022/05/10 12:24:52;;;;;;;3.60;3.30;;;;;;;33.28;20.80;99032.13;7003154;28;20293;-82
2022/05/10 12:28:39;;;;;;;3.23;3.03;;;;;;;33.71;20.21;99032.34;7038212;28;20204;-82
2022/05/10 12:32:02;;;;;;;4.53;3.50;;;;;;;33.47;19.76;99010.00;7038976;28;20224;-82
2022/05/10 12:36:07;;;;;;;4.50;3.53;;;;;;;33.84;18.64;99010.81;7039773;28;20198;-82
2022/05/10 12:39:31;;;;;;;4.67;3.47;;;;;;;31.76;20.56;99014.78;7039366;28;20220;-82
2022/05/10 12:43:08;;;;;;;3.20;3.00;;;;;;;32.41;21.64;99014.94;7040174;28;20238;-82
2022/05/10 12:46:37;;;;;;;3.27;2.97;;;;;;;33.10;20.72;99002.72;7038788;28;20259;-82
2022/05/10 12:50:07;;;;;;;3.77;2.97;;;;;;;33.77;19.50;98983.44;7038501;28;20196;-82
2022/05/10 12:53:32;;;;;;;4.23;3.20;;;;;;;33.89;19.57;98999.41;7038900;28;20213;-81
2022/05/10 12:57:07;;;;;;;3.20;2.80;;;;;;;33.02;20.45;99000.03;7049298;28;20193;-82
2022/05/10 13:00:33;;;;;;;4.10;3.20;;;;;;;33.32;20.32;98990.31;7039994;28;20276;-82
2022/05/10 13:03:59;;;;;;;3.50;3.20;;;;;;;33.46;19.44;98941.25;7035142;28;20233;-82
2022/05/10 13:07:34;;;;;;;5.07;3.40;;;;;;;33.72;19.73;98978.03;7035527;28;20216;-82
2022/05/10 13:11:00;;;;;;;3.10;2.90;;;;;;;33.13;20.31;98964.91;7028884;28;20197;-82
2022/05/10 13:14:22;;;;;;;4.70;3.33;;;;;;;31.06;21.12;98944.94;7008707;28;20235;-82
2022/05/10 13:17:45;;;;;;;3.67;3.07;;;;;;;31.70;20.89;98966.72;7007017;28;20229;-81
2022/05/10 13:21:07;;;;;;;4.70;3.20;;;;;;;32.25;21.37;98956.13;7006457;28;20244;-82
2022/05/10 13:24:28;;;;;;;3.30;3.00;;;;;;;32.00;21.06;98951.59;7007908;28;20197;-82
2022/05/10 13:27:52;;;;;;;2.90;2.67;;;;;;;32.25;20.10;98947.78;7006622;28;20216;-82
2022/05/10 13:31:18;;;;;;;5.63;2.90;;;;;;;32.73;20.02;98933.16;7010849;28;20212;-82
2022/05/10 13:34:50;;;;;;;3.67;3.13;;;;;;;32.68;19.73;98941.75;7006664;28;20215;-82
2022/05/10 13:38:14;;;;;;;3.20;2.90;;;;;;;32.52;21.25;98926.81;7007523;28;20217;-82
2022/05/10 13:41:37;;;;;;;3.03;2.80;;;;;;;31.81;21.61;98934.53;7006989;28;20231;-81
2022/05/10 13:45:01;;;;;;;6.53;3.53;;;;;;;31.50;22.23;98930.47;7007734;28;20265;-81
2022/05/10 13:48:29;;;;;;;4.40;3.00;;;;;;;32.22;21.98;98931.69;7011561;28;20291;-81
2022/05/10 13:51:52;;;;;;;4.77;3.53;;;;;;;32.06;20.94;98927.06;7017542;28;20308;-81
2022/05/10 13:55:17;;;;;;;5.03;3.33;;;;;;;31.97;21.19;98879.72;7008799;28;20209;-81
2022/05/10 13:58:41;;;;;;;3.40;3.10;;;;;;;32.57;20.29;98921.00;7007909;28;20293;-81
2022/05/10 14:02:05;;;;;;;4.73;3.40;;;;;;;31.92;21.22;98918.19;7008670;28;20236;-82
2022/05/10 14:05:29;;;;;;;4.07;2.87;;;;;;;32.19;20.58;98921.19;7008249;28;20211;-81
2022/05/10 14:08:52;;;;;;;3.33;3.03;;;;;;;32.58;20.53;98915.06;7018847;28;20215;-82
2022/05/10 14:12:20;;;;;;;4.20;3.33;;;;;;;33.17;19.82;98909.91;7036556;28;20311;-81
2022/05/10 14:15:46;;;;;;;3.40;3.20;;;;;;;32.80;20.37;98911.91;7036342;28;20199;-81
2022/05/10 14:19:21;;;;;;;4.77;3.00;;;;;;;32.29;20.59;98887.31;7037637;28;20240;-81
2022/05/10 14:22:43;;;;;;;4.73;3.20;;;;;;;32.61;21.01;98897.63;7035921;28;20708;-81
2022/05/10 14:26:24;;;;;;;4.40;3.47;;;;;;;32.22;21.78;98892.63;7030464;28;20775;-82
2022/05/10 14:29:49;;;;;;;6.00;3.20;;;;;;;32.42;21.10;98900.16;7009404;28;20193;-81
2022/05/10 14:33:18;;;;;;;3.73;3.40;;;;;;;32.34;21.89;98858.38;7007684;28;20244;-81
2022/05/10 14:36:44;;;;;;;6.33;3.30;;;;;;;32.39;21.01;98878.53;7008777;28;20203;-81
2022/05/10 14:40:19;;;;;;;3.47;3.17;;;;;;;32.63;21.66;98892.53;7009648;28;20225;-81
2022/05/10 14:43:42;;;;;;;3.77;3.47;;;;;;;32.78;20.89;98894.66;7008564;28;20235;-81
2022/05/10 14:47:16;;;;;;;3.70;3.30;;;;;;;32.75;20.98;98883.31;7011373;28;20201;-81
2022/05/10 14:50:42;;;;;;;3.37;3.17;;;;;;;32.87;20.60;98875.81;7013229;28;20195;-81
2022/05/10 14:54:06;;;;;;;3.70;3.40;;;;;;;32.41;20.92;98875.34;7012562;28;20255;-81
2022/05/10 14:57:35;;;;;;;4.07;3.73;;;;;;;32.50;21.23;98846.19;7012337;28;20205;-81
2022/05/10 15:01:07;;;;;;;4.73;3.63;;;;;;;32.13;21.95;98863.19;7012357;28;20228;-81
2022/05/10 15:04:32;;;;;;;3.60;3.30;;;;;;;32.63;21.42;98863.75;7010235;28;20216;-82
2022/05/10 15:07:54;;;;;;;3.37;3.10;;;;;;;32.73;20.81;98858.53;7011479;28;20229;-82
2022/05/10 15:11:17;;;;;;;3.87;3.57;;;;;;;32.14;21.94;98823.75;7012835;28;20233;-80
2022/05/10 15:14:39;;;;;;;3.33;3.10;;;;;;;33.08;21.59;98854.13;7014704;28;20662;-81
2022/05/10 15:21:44;;;;;;;4.03;3.20;;;;;;;32.49;22.72;98852.91;7012426;28;20229;-81
2022/05/10 15:25:06;;;;;;;6.40;3.53;;;;;;;31.68;22.46;98848.31;7019510;28;20196;-81
2022/05/10 15:28:29;;;;;;;4.43;3.30;;;;;;;32.47;21.92;98838.50;7040866;28;20218;-81
2022/05/10 15:31:51;;;;;;;5.10;3.43;;;;;;;32.37;22.23;98824.19;7039655;28;20320;-81
2022/05/10 15:35:13;;;;;;;3.80;3.50;;;;;;;31.87;23.14;98845.88;7056318;28;20189;-80
2022/05/10 15:38:34;;;;;;;3.90;3.60;;;;;;;31.70;22.98;98841.25;7051535;28;20286;-81
2022/05/10 15:41:56;;;;;;;3.70;3.40;;;;;;;31.95;22.52;98820.69;7039362;28;20230;-81
2022/05/10 15:45:20;;;;;;;3.90;3.60;;;;;;;31.48;23.11;98826.84;7014215;28;20278;-81
2022/05/10 15:48:42;;;;;;;4.93;3.50;;;;;;;30.94;23.83;98802.78;7010729;28;20652;-81
2022/05/10 15:52:04;;;;;;;4.13;3.73;;;;;;;31.65;23.54;98843.41;7011404;28;20275;-81
2022/05/10 15:55:26;;;;;;;4.07;3.67;;;;;;;31.34;24.40;98832.69;7011730;28;20224;-81
2022/05/10 15:58:48;;;;;;;4.17;3.87;;;;;;;30.97;24.77;98819.66;7011109;28;20288;-81
2022/05/10 16:02:12;;;;;;;4.40;4.00;;;;;;;31.34;24.26;98840.22;7011392;28;20590;-81
2022/05/10 16:05:39;;;;;;;4.03;3.73;;;;;;;30.73;24.95;98799.16;7027840;28;20337;-81
2022/05/10 16:09:01;;;;;;;4.30;3.60;;;;;;;30.40;25.47;98803.72;7041277;28;20202;-81
2022/05/10 16:12:25;;;;;;;4.20;3.80;;;;;;;31.34;25.24;98818.75;7018814;28;20221;-82
2022/05/10 16:15:46;;;;;;;4.33;4.03;;;;;;;31.54;24.87;98817.13;7031586;28;20268;-80
2022/05/10 16:19:10;;;;;;;4.53;4.13;;;;;;;30.91;25.27;98809.84;7043510;28;20194;-81